sensor_id;sensor_type;location;lat;lon;timestamp;pressure;altitude;pressure_sealevel;temperature;humidity
31681;BME280;18281;51.364;9.566;2023-05-19T00:00:42;100965.22;;;7.20;91.14
31681;BME280;18281;51.364;9.566;2023-05-19T00:03:09;100966.19;;;7.16;90.89
31681;BME280;18281;51.364;9.566;2023-05-19T00:05:35;100967.97;;;7.15;90.18
31681;BME280;18281;51.364;9.566;2023-05-19T00:08:10;100965.66;;;7.03;91.95
31681;BME280;18281;51.364;9.566;2023-05-19T00:10:36;100962.38;;;6.95;92.94
31681;BME280;18281;51.364;9.566;2023-05-19T00:13:02;100961.81;;;6.82;94.15
31681;BME280;18281;51.364;9.566;2023-05-19T00:15:28;100955.56;;;6.87;93.44
31681;BME280;18281;51.364;9.566;2023-05-19T00:17:54;100968.78;;;6.80;93.91
31681;BME280;18281;51.364;9.566;2023-05-19T00:20:20;100960.03;;;6.82;93.01
31681;BME280;18281;51.364;9.566;2023-05-19T00:22:45;100962.72;;;6.79;92.89
31681;BME280;18281;51.364;9.566;2023-05-19T00:25:11;100959.19;;;6.82;92.57
31681;BME280;18281;51.364;9.566;2023-05-19T00:27:36;100956.72;;;6.76;92.80
31681;BME280;18281;51.364;9.566;2023-05-19T00:30:02;100953.31;;;6.72;92.63
31681;BME280;18281;51.364;9.566;2023-05-19T00:32:27;100959.44;;;6.71;92.87
31681;BME280;18281;51.364;9.566;2023-05-19T00:34:53;100955.16;;;6.68;93.54
31681;BME280;18281;51.364;9.566;2023-05-19T00:37:18;100956.19;;;6.63;93.59
31681;BME280;18281;51.364;9.566;2023-05-19T00:39:44;100953.47;;;6.66;93.28
31681;BME280;18281;51.364;9.566;2023-05-19T00:42:09;100955.31;;;6.62;93.21
31681;BME280;18281;51.364;9.566;2023-05-19T00:44:39;100954.91;;;6.42;95.63
31681;BME280;18281;51.364;9.566;2023-05-19T00:47:05;100956.56;;;6.46;95.87
31681;BME280;18281;51.364;9.566;2023-05-19T00:49:30;100953.03;;;6.48;95.15
31681;BME280;18281;51.364;9.566;2023-05-19T00:51:56;100951.31;;;6.47;95.61
31681;BME280;18281;51.364;9.566;2023-05-19T00:54:22;100948.56;;;6.52;93.81
31681;BME280;18281;51.364;9.566;2023-05-19T00:56:48;100951.19;;;6.52;93.09
31681;BME280;18281;51.364;9.566;2023-05-19T00:59:14;100948.31;;;6.27;95.30
31681;BME280;18281;51.364;9.566;2023-05-19T01:01:40;100954.38;;;6.27;95.72
31681;BME280;18281;51.364;9.566;2023-05-19T01:04:05;100946.44;;;6.32;94.49
31681;BME280;18281;51.364;9.566;2023-05-19T01:06:34;100948.31;;;6.27;94.59
31681;BME280;18281;51.364;9.566;2023-05-19T01:09:02;100950.88;;;6.28;94.64
31681;BME280;18281;51.364;9.566;2023-05-19T01:11:27;100946.63;;;6.24;94.07
31681;BME280;18281;51.364;9.566;2023-05-19T01:13:53;100944.31;;;6.10;96.10
31681;BME280;18281;51.364;9.566;2023-05-19T01:16:30;100940.94;;;6.06;96.66
31681;BME280;18281;51.364;9.566;2023-05-19T01:22:11;100940.31;;;5.94;97.68
31681;BME280;18281;51.364;9.566;2023-05-19T01:30:19;100937.09;;;5.82;97.01
31681;BME280;18281;51.364;9.566;2023-05-19T01:32:49;100941.31;;;5.88;96.04
31681;BME280;18281;51.364;9.566;2023-05-19T01:35:18;100936.94;;;5.88;95.61
31681;BME280;18281;51.364;9.566;2023-05-19T01:37:44;100935.38;;;5.81;95.71
31681;BME280;18281;51.364;9.566;2023-05-19T01:40:11;100934.38;;;5.87;94.61
31681;BME280;18281;51.364;9.566;2023-05-19T01:42:38;100938.84;;;5.82;93.41
31681;BME280;18281;51.364;9.566;2023-05-19T01:45:05;100936.34;;;5.77;93.89
31681;BME280;18281;51.364;9.566;2023-05-19T01:47:35;100939.91;;;5.73;93.64
31681;BME280;18281;51.364;9.566;2023-05-19T01:50:04;100938.31;;;5.64;94.27
31681;BME280;18281;51.364;9.566;2023-05-19T01:52:30;100934.94;;;5.59;95.42
31681;BME280;18281;51.364;9.566;2023-05-19T01:54:55;100942.75;;;5.59;94.54
31681;BME280;18281;51.364;9.566;2023-05-19T01:57:54;100944.59;;;5.55;94.43
31681;BME280;18281;51.364;9.566;2023-05-19T02:00:32;100943.75;;;5.53;93.94
31681;BME280;18281;51.364;9.566;2023-05-19T02:06:17;100950.16;;;5.34;95.49
31681;BME280;18281;51.364;9.566;2023-05-19T02:08:56;100952.22;;;5.15;96.29
31681;BME280;18281;51.364;9.566;2023-05-19T02:11:33;100949.66;;;5.13;97.11
31681;BME280;18281;51.364;9.566;2023-05-19T02:14:05;100954.91;;;5.12;97.55
31681;BME280;18281;51.364;9.566;2023-05-19T02:16:32;100952.13;;;5.21;96.02
31681;BME280;18281;51.364;9.566;2023-05-19T02:19:00;100950.47;;;5.15;96.69
31681;BME280;18281;51.364;9.566;2023-05-19T02:21:25;100948.97;;;5.03;97.89
31681;BME280;18281;51.364;9.566;2023-05-19T02:23:51;100951.88;;;4.85;99.62
31681;BME280;18281;51.364;9.566;2023-05-19T02:26:16;100950.97;;;4.87;99.38
31681;BME280;18281;51.364;9.566;2023-05-19T02:28:41;100948.94;;;5.05;97.51
31681;BME280;18281;51.364;9.566;2023-05-19T02:31:07;100952.34;;;5.07;96.62
31681;BME280;18281;51.364;9.566;2023-05-19T02:33:34;100959.38;;;5.02;96.28
31681;BME280;18281;51.364;9.566;2023-05-19T02:36:00;100959.53;;;4.94;96.73
31681;BME280;18281;51.364;9.566;2023-05-19T02:38:25;100956.97;;;4.91;97.20
31681;BME280;18281;51.364;9.566;2023-05-19T02:40:51;100950.97;;;4.87;97.33
31681;BME280;18281;51.364;9.566;2023-05-19T02:43:17;100950.06;;;4.88;96.77
31681;BME280;18281;51.364;9.566;2023-05-19T02:45:42;100944.34;;;4.68;98.91
31681;BME280;18281;51.364;9.566;2023-05-19T02:48:08;100939.84;;;4.78;98.45
31681;BME280;18281;51.364;9.566;2023-05-19T02:50:33;100943.28;;;4.80;96.97
31681;BME280;18281;51.364;9.566;2023-05-19T02:52:59;100940.78;;;4.73;97.68
31681;BME280;18281;51.364;9.566;2023-05-19T02:55:24;100936.66;;;4.60;99.54
31681;BME280;18281;51.364;9.566;2023-05-19T02:57:50;100936.16;;;4.35;100.00
31681;BME280;18281;51.364;9.566;2023-05-19T03:00:16;100932.03;;;4.23;100.00
31681;BME280;18281;51.364;9.566;2023-05-19T03:02:41;100933.84;;;4.15;100.00
31681;BME280;18281;51.364;9.566;2023-05-19T03:05:08;100931.03;;;4.32;100.00
31681;BME280;18281;51.364;9.566;2023-05-19T03:07:34;100932.50;;;4.50;100.00
31681;BME280;18281;51.364;9.566;2023-05-19T03:09:59;100941.94;;;4.55;100.00
31681;BME280;18281;51.364;9.566;2023-05-19T03:12:28;100935.88;;;4.53;99.31
31681;BME280;18281;51.364;9.566;2023-05-19T03:14:53;100934.47;;;4.34;100.00
31681;BME280;18281;51.364;9.566;2023-05-19T03:17:19;100930.34;;;4.20;100.00
31681;BME280;18281;51.364;9.566;2023-05-19T03:19:44;100936.31;;;4.24;100.00
31681;BME280;18281;51.364;9.566;2023-05-19T03:22:10;100947.41;;;4.37;100.00
31681;BME280;18281;51.364;9.566;2023-05-19T03:24:35;100943.06;;;4.39;100.00
31681;BME280;18281;51.364;9.566;2023-05-19T03:27:01;100942.34;;;4.28;100.00
31681;BME280;18281;51.364;9.566;2023-05-19T03:29:26;100943.13;;;4.34;99.52
31681;BME280;18281;51.364;9.566;2023-05-19T03:31:52;100937.19;;;4.26;100.00
31681;BME280;18281;51.364;9.566;2023-05-19T03:34:17;100937.34;;;4.15;100.00
31681;BME280;18281;51.364;9.566;2023-05-19T03:36:42;100942.56;;;4.12;100.00
31681;BME280;18281;51.364;9.566;2023-05-19T03:39:09;100950.28;;;4.18;100.00
31681;BME280;18281;51.364;9.566;2023-05-19T03:41:35;100942.56;;;4.14;100.00
31681;BME280;18281;51.364;9.566;2023-05-19T03:44:00;100944.25;;;4.16;100.00
31681;BME280;18281;51.364;9.566;2023-05-19T03:46:26;100950.31;;;4.15;100.00
31681;BME280;18281;51.364;9.566;2023-05-19T03:48:51;100956.69;;;3.93;100.00
31681;BME280;18281;51.364;9.566;2023-05-19T03:51:17;100951.25;;;4.08;100.00
31681;BME280;18281;51.364;9.566;2023-05-19T03:53:42;100953.03;;;4.06;100.00
31681;BME280;18281;51.364;9.566;2023-05-19T03:56:08;100952.19;;;4.04;100.00
31681;BME280;18281;51.364;9.566;2023-05-19T03:58:35;100954.91;;;3.96;100.00
31681;BME280;18281;51.364;9.566;2023-05-19T04:01:03;100956.66;;;3.94;100.00
31681;BME280;18281;51.364;9.566;2023-05-19T04:03:28;100962.75;;;3.92;100.00
31681;BME280;18281;51.364;9.566;2023-05-19T04:05:54;100949.16;;;3.71;100.00
31681;BME280;18281;51.364;9.566;2023-05-19T04:08:19;100948.84;;;3.96;100.00
31681;BME280;18281;51.364;9.566;2023-05-19T04:10:45;100950.47;;;4.04;100.00
31681;BME280;18281;51.364;9.566;2023-05-19T04:13:10;100949.63;;;4.02;100.00
31681;BME280;18281;51.364;9.566;2023-05-19T04:15:35;100953.06;;;4.04;100.00
31681;BME280;18281;51.364;9.566;2023-05-19T04:18:01;100947.88;;;4.04;100.00
31681;BME280;18281;51.364;9.566;2023-05-19T04:20:26;100953.09;;;4.03;100.00
31681;BME280;18281;51.364;9.566;2023-05-19T04:22:52;100951.38;;;4.02;100.00
31681;BME280;18281;51.364;9.566;2023-05-19T04:25:17;100947.91;;;4.00;100.00
31681;BME280;18281;51.364;9.566;2023-05-19T04:27:44;100950.56;;;3.97;100.00
31681;BME280;18281;51.364;9.566;2023-05-19T04:30:10;100955.88;;;3.87;100.00
31681;BME280;18281;51.364;9.566;2023-05-19T04:32:36;100961.09;;;3.86;100.00
31681;BME280;18281;51.364;9.566;2023-05-19T04:35:01;100950.53;;;3.98;100.00
31681;BME280;18281;51.364;9.566;2023-05-19T04:37:27;100950.53;;;3.98;100.00
31681;BME280;18281;51.364;9.566;2023-05-19T04:39:54;100959.13;;;4.03;100.00
31681;BME280;18281;51.364;9.566;2023-05-19T04:42:19;100961.03;;;3.92;100.00
31681;BME280;18281;51.364;9.566;2023-05-19T04:44:47;100959.44;;;3.77;100.00
31681;BME280;18281;51.364;9.566;2023-05-19T04:47:16;100957.75;;;3.76;100.00
31681;BME280;18281;51.364;9.566;2023-05-19T04:49:42;100966.22;;;3.91;100.00
31681;BME280;18281;51.364;9.566;2023-05-19T04:52:09;100964.16;;;4.16;100.00
31681;BME280;18281;51.364;9.566;2023-05-19T04:54:36;100959.72;;;4.26;100.00
31681;BME280;18281;51.364;9.566;2023-05-19T04:57:02;100965.81;;;4.21;100.00
31681;BME280;18281;51.364;9.566;2023-05-19T04:59:27;100958.78;;;4.30;100.00
31681;BME280;18281;51.364;9.566;2023-05-19T05:01:53;100959.72;;;4.24;100.00
31681;BME280;18281;51.364;9.566;2023-05-19T05:04:18;100960.78;;;4.09;100.00
31681;BME280;18281;51.364;9.566;2023-05-19T05:06:44;100960.47;;;4.34;100.00
31681;BME280;18281;51.364;9.566;2023-05-19T05:09:15;100963.16;;;4.28;100.00
31681;BME280;18281;51.364;9.566;2023-05-19T05:11:41;100964.03;;;4.27;100.00
31681;BME280;18281;51.364;9.566;2023-05-19T05:14:07;100959.44;;;4.46;100.00
31681;BME280;18281;51.364;9.566;2023-05-19T05:16:33;100955.94;;;4.47;100.00
31681;BME280;18281;51.364;9.566;2023-05-19T05:18:59;100952.72;;;4.29;100.00
31681;BME280;18281;51.364;9.566;2023-05-19T05:21:26;100958.50;;;4.48;100.00
31681;BME280;18281;51.364;9.566;2023-05-19T05:23:52;100953.47;;;4.39;100.00
31681;BME280;18281;51.364;9.566;2023-05-19T05:26:18;100950.69;;;5.03;100.00
31681;BME280;18281;51.364;9.566;2023-05-19T05:28:45;100953.56;;;5.39;100.00
31681;BME280;18281;51.364;9.566;2023-05-19T05:31:11;100956.66;;;5.58;100.00
31681;BME280;18281;51.364;9.566;2023-05-19T05:33:37;100950.88;;;5.87;100.00
31681;BME280;18281;51.364;9.566;2023-05-19T05:36:03;100951.50;;;6.38;100.00
31681;BME280;18281;51.364;9.566;2023-05-19T05:38:29;100951.31;;;6.47;100.00
31681;BME280;18281;51.364;9.566;2023-05-19T05:40:54;100952.41;;;6.37;100.00
31681;BME280;18281;51.364;9.566;2023-05-19T05:43:20;100944.50;;;6.01;100.00
31681;BME280;18281;51.364;9.566;2023-05-19T05:45:45;100951.94;;;5.79;100.00
31681;BME280;18281;51.364;9.566;2023-05-19T05:48:11;100948.78;;;5.63;100.00
31681;BME280;18281;51.364;9.566;2023-05-19T05:50:36;100948.03;;;5.56;100.00
31681;BME280;18281;51.364;9.566;2023-05-19T05:53:02;100948.84;;;5.60;100.00
31681;BME280;18281;51.364;9.566;2023-05-19T05:55:30;100949.66;;;5.62;100.00
31681;BME280;18281;51.364;9.566;2023-05-19T05:57:56;100939.41;;;5.52;100.00
31681;BME280;18281;51.364;9.566;2023-05-19T06:00:22;100945.31;;;5.62;100.00
31681;BME280;18281;51.364;9.566;2023-05-19T06:02:49;100953.09;;;5.64;100.00
31681;BME280;18281;51.364;9.566;2023-05-19T06:05:15;100945.88;;;6.19;100.00
31681;BME280;18281;51.364;9.566;2023-05-19T06:07:41;100949.53;;;6.49;100.00
31681;BME280;18281;51.364;9.566;2023-05-19T06:10:08;100948.84;;;6.77;100.00
31681;BME280;18281;51.364;9.566;2023-05-19T06:12:34;100937.75;;;7.05;100.00
31681;BME280;18281;51.364;9.566;2023-05-19T06:15:01;100932.28;;;7.14;100.00
31681;BME280;18281;51.364;9.566;2023-05-19T06:17:27;100934.28;;;7.37;100.00
31681;BME280;18281;51.364;9.566;2023-05-19T06:19:53;100928.72;;;7.50;100.00
31681;BME280;18281;51.364;9.566;2023-05-19T06:22:18;100931.66;;;7.69;100.00
31681;BME280;18281;51.364;9.566;2023-05-19T06:24:43;100926.59;;;7.94;100.00
31681;BME280;18281;51.364;9.566;2023-05-19T06:27:09;100924.38;;;8.10;100.00
31681;BME280;18281;51.364;9.566;2023-05-19T06:29:34;100928.38;;;8.20;100.00
31681;BME280;18281;51.364;9.566;2023-05-19T06:32:00;100918.34;;;8.35;99.35
31681;BME280;18281;51.364;9.566;2023-05-19T06:34:25;100924.53;;;8.61;99.79
31681;BME280;18281;51.364;9.566;2023-05-19T06:36:51;100922.22;;;8.78;98.55
31681;BME280;18281;51.364;9.566;2023-05-19T06:39:16;100920.88;;;8.93;97.88
31681;BME280;18281;51.364;9.566;2023-05-19T06:41:42;100922.88;;;9.10;98.94
31681;BME280;18281;51.364;9.566;2023-05-19T06:44:07;100924.47;;;9.14;96.02
31681;BME280;18281;51.364;9.566;2023-05-19T06:46:33;100919.50;;;9.32;93.09
31681;BME280;18281;51.364;9.566;2023-05-19T06:48:58;100919.59;;;9.54;90.83
31681;BME280;18281;51.364;9.566;2023-05-19T06:51:24;100918.25;;;9.67;90.21
31681;BME280;18281;51.364;9.566;2023-05-19T06:53:49;100904.63;;;9.81;89.20
31681;BME280;18281;51.364;9.566;2023-05-19T06:56:15;100908.59;;;9.91;87.62
31681;BME280;18281;51.364;9.566;2023-05-19T06:58:41;100906.84;;;10.14;88.49
31681;BME280;18281;51.364;9.566;2023-05-19T07:01:06;100905.41;;;10.07;86.02
31681;BME280;18281;51.364;9.566;2023-05-19T07:03:32;100901.19;;;10.25;87.08
31681;BME280;18281;51.364;9.566;2023-05-19T07:05:57;100903.06;;;10.44;86.90
31681;BME280;18281;51.364;9.566;2023-05-19T07:08:23;100898.81;;;10.62;86.31
31681;BME280;18281;51.364;9.566;2023-05-19T07:10:48;100887.22;;;10.67;83.14
31681;BME280;18281;51.364;9.566;2023-05-19T07:13:13;100890.78;;;10.87;83.30
31681;BME280;18281;51.364;9.566;2023-05-19T07:15:39;100889.28;;;10.81;82.49
31681;BME280;18281;51.364;9.566;2023-05-19T07:18:04;100890.47;;;10.72;82.36
31681;BME280;18281;51.364;9.566;2023-05-19T07:20:29;100880.09;;;10.91;83.41
31681;BME280;18281;51.364;9.566;2023-05-19T07:22:55;100885.47;;;10.88;83.46
31681;BME280;18281;51.364;9.566;2023-05-19T07:25:20;100881.69;;;10.96;83.98
31681;BME280;18281;51.364;9.566;2023-05-19T07:27:46;100878.97;;;10.97;83.52
31681;BME280;18281;51.364;9.566;2023-05-19T07:30:11;100882.59;;;10.95;79.86
31681;BME280;18281;51.364;9.566;2023-05-19T07:32:37;100881.84;;;10.91;80.28
31681;BME280;18281;51.364;9.566;2023-05-19T07:35:04;100890.78;;;10.87;79.34
31681;BME280;18281;51.364;9.566;2023-05-19T07:37:29;100884.94;;;10.80;77.96
31681;BME280;18281;51.364;9.566;2023-05-19T07:39:55;100878.00;;;11.00;77.68
31681;BME280;18281;51.364;9.566;2023-05-19T07:42:20;100877.09;;;11.01;78.38
31681;BME280;18281;51.364;9.566;2023-05-19T07:44:45;100879.16;;;11.13;77.32
31681;BME280;18281;51.364;9.566;2023-05-19T07:47:10;100876.50;;;11.34;77.02
31681;BME280;18281;51.364;9.566;2023-05-19T07:49:36;100874.66;;;11.36;76.03
31681;BME280;18281;51.364;9.566;2023-05-19T07:52:01;100863.81;;;11.44;75.15
31681;BME280;18281;51.364;9.566;2023-05-19T07:54:27;100864.94;;;11.57;75.12
31681;BME280;18281;51.364;9.566;2023-05-19T07:56:52;100861.50;;;11.74;75.32
31681;BME280;18281;51.364;9.566;2023-05-19T07:59:18;100864.22;;;11.91;75.12
31681;BME280;18281;51.364;9.566;2023-05-19T08:01:43;100861.22;;;11.99;73.95
31681;BME280;18281;51.364;9.566;2023-05-19T08:04:09;100865.13;;;12.09;73.44
31681;BME280;18281;51.364;9.566;2023-05-19T08:06:34;100865.22;;;12.08;72.92
31681;BME280;18281;51.364;9.566;2023-05-19T08:09:00;100871.19;;;12.29;72.74
31681;BME280;18281;51.364;9.566;2023-05-19T08:11:25;100866.25;;;12.40;72.87
31681;BME280;18281;51.364;9.566;2023-05-19T08:13:51;100860.00;;;12.43;72.43
31681;BME280;18281;51.364;9.566;2023-05-19T08:16:16;100862.53;;;12.45;72.37
31681;BME280;18281;51.364;9.566;2023-05-19T08:18:42;100854.94;;;12.56;72.23
31681;BME280;18281;51.364;9.566;2023-05-19T08:21:07;100848.06;;;12.71;71.72
31681;BME280;18281;51.364;9.566;2023-05-19T08:23:33;100848.28;;;12.84;71.44
31681;BME280;18281;51.364;9.566;2023-05-19T08:25:59;100849.91;;;13.04;71.76
31681;BME280;18281;51.364;9.566;2023-05-19T08:28:24;100850.50;;;13.09;72.05
31681;BME280;18281;51.364;9.566;2023-05-19T08:30:50;100858.94;;;13.16;71.85
31681;BME280;18281;51.364;9.566;2023-05-19T08:33:16;100853.41;;;13.04;69.92
31681;BME280;18281;51.364;9.566;2023-05-19T08:35:42;100841.19;;;13.19;69.89
31681;BME280;18281;51.364;9.566;2023-05-19T08:38:07;100836.78;;;13.36;69.73
31681;BME280;18281;51.364;9.566;2023-05-19T08:40:33;100827.88;;;13.54;70.30
31681;BME280;18281;51.364;9.566;2023-05-19T08:43:01;100837.22;;;13.60;70.46
31681;BME280;18281;51.364;9.566;2023-05-19T08:45:26;100832.13;;;13.73;69.69
31681;BME280;18281;51.364;9.566;2023-05-19T08:47:52;100824.44;;;13.84;68.96
31681;BME280;18281;51.364;9.566;2023-05-19T08:50:23;100819.84;;;13.88;69.58
31681;BME280;18281;51.364;9.566;2023-05-19T08:52:54;100826.34;;;13.82;69.61
31681;BME280;18281;51.364;9.566;2023-05-19T08:55:30;100825.66;;;13.95;69.20
31681;BME280;18281;51.364;9.566;2023-05-19T08:58:00;100828.41;;;13.93;68.31
31681;BME280;18281;51.364;9.566;2023-05-19T09:00:26;100815.78;;;13.82;68.14
31681;BME280;18281;51.364;9.566;2023-05-19T09:02:52;100815.19;;;14.09;67.67
31681;BME280;18281;51.364;9.566;2023-05-19T09:05:18;100808.59;;;14.16;67.74
31681;BME280;18281;51.364;9.566;2023-05-19T09:07:44;100806.72;;;14.18;67.66
31681;BME280;18281;51.364;9.566;2023-05-19T09:10:11;100808.97;;;14.24;67.48
31681;BME280;18281;51.364;9.566;2023-05-19T09:12:45;100811.13;;;14.18;65.63
31681;BME280;18281;51.364;9.566;2023-05-19T09:15:12;100791.41;;;14.09;64.29
31681;BME280;18281;51.364;9.566;2023-05-19T09:17:38;100795.97;;;14.21;66.35
31681;BME280;18281;51.364;9.566;2023-05-19T09:20:04;100793.00;;;14.42;65.95
31681;BME280;18281;51.364;9.566;2023-05-19T09:22:39;100788.66;;;14.41;66.44
31681;BME280;18281;51.364;9.566;2023-05-19T09:25:06;100789.72;;;14.67;66.48
31681;BME280;18281;51.364;9.566;2023-05-19T09:27:41;100794.63;;;14.59;65.37
31681;BME280;18281;51.364;9.566;2023-05-19T09:30:07;100792.66;;;14.77;65.15
31681;BME280;18281;51.364;9.566;2023-05-19T09:32:34;100789.84;;;14.80;63.77
31681;BME280;18281;51.364;9.566;2023-05-19T09:35:02;100791.59;;;14.81;65.25
31681;BME280;18281;51.364;9.566;2023-05-19T09:37:28;100790.63;;;14.82;64.79
31681;BME280;18281;51.364;9.566;2023-05-19T09:39:53;100794.22;;;14.81;64.30
31681;BME280;18281;51.364;9.566;2023-05-19T09:42:25;100789.31;;;14.89;64.50
31681;BME280;18281;51.364;9.566;2023-05-19T09:45:01;100786.63;;;14.75;62.85
31681;BME280;18281;51.364;9.566;2023-05-19T09:47:32;100791.97;;;14.89;61.58
31681;BME280;18281;51.364;9.566;2023-05-19T09:49:58;100786.47;;;14.92;61.65
31681;BME280;18281;51.364;9.566;2023-05-19T09:52:23;100782.03;;;15.07;61.47
31681;BME280;18281;51.364;9.566;2023-05-19T09:54:49;100786.66;;;15.04;61.51
31681;BME280;18281;51.364;9.566;2023-05-19T09:57:16;100781.75;;;15.12;61.97
31681;BME280;18281;51.364;9.566;2023-05-19T09:59:42;100775.97;;;15.20;62.48
31681;BME280;18281;51.364;9.566;2023-05-19T10:02:13;100771.91;;;15.14;62.12
31681;BME280;18281;51.364;9.566;2023-05-19T10:04:40;100786.19;;;15.12;61.19
31681;BME280;18281;51.364;9.566;2023-05-19T10:07:06;100778.13;;;15.27;61.24
31681;BME280;18281;51.364;9.566;2023-05-19T10:09:35;100769.03;;;15.46;61.43
31681;BME280;18281;51.364;9.566;2023-05-19T10:12:01;100769.41;;;15.40;61.06
31681;BME280;18281;51.364;9.566;2023-05-19T10:14:28;100780.84;;;15.40;61.19
31681;BME280;18281;51.364;9.566;2023-05-19T10:16:56;100782.47;;;15.29;61.37
31681;BME280;18281;51.364;9.566;2023-05-19T10:19:26;100764.53;;;15.34;60.87
31681;BME280;18281;51.364;9.566;2023-05-19T10:21:53;100762.03;;;15.45;60.81
31681;BME280;18281;51.364;9.566;2023-05-19T10:24:19;100771.88;;;15.43;60.54
31681;BME280;18281;51.364;9.566;2023-05-19T10:27:05;100763.53;;;15.49;58.64
31681;BME280;18281;51.364;9.566;2023-05-19T10:29:34;100766.94;;;15.51;59.78
31681;BME280;18281;51.364;9.566;2023-05-19T10:32:05;100760.28;;;15.58;59.17
31681;BME280;18281;51.364;9.566;2023-05-19T10:37:42;100749.34;;;15.50;58.81
31681;BME280;18281;51.364;9.566;2023-05-19T10:43:01;100747.72;;;15.62;58.25
31681;BME280;18281;51.364;9.566;2023-05-19T10:45:33;100747.50;;;15.65;58.14
31681;BME280;18281;51.364;9.566;2023-05-19T10:48:00;100741.03;;;15.84;58.11
31681;BME280;18281;51.364;9.566;2023-05-19T10:50:26;100746.31;;;15.84;57.64
31681;BME280;18281;51.364;9.566;2023-05-19T10:52:52;100749.00;;;15.97;57.77
31681;BME280;18281;51.364;9.566;2023-05-19T10:55:49;100745.38;;;15.98;56.85
31681;BME280;18281;51.364;9.566;2023-05-19T10:58:35;100737.78;;;15.93;57.06
31681;BME280;18281;51.364;9.566;2023-05-19T11:01:01;100743.72;;;15.97;57.17
31681;BME280;18281;51.364;9.566;2023-05-19T11:03:28;100745.31;;;15.99;56.13
31681;BME280;18281;51.364;9.566;2023-05-19T11:06:24;100729.56;;;16.23;57.90
31681;BME280;18281;51.364;9.566;2023-05-19T11:09:01;100737.94;;;16.43;57.94
31681;BME280;18281;51.364;9.566;2023-05-19T11:11:49;100730.50;;;16.48;57.25
31681;BME280;18281;51.364;9.566;2023-05-19T11:14:21;100722.56;;;16.48;57.64
31681;BME280;18281;51.364;9.566;2023-05-19T11:16:58;100716.66;;;16.57;57.83
31681;BME280;18281;51.364;9.566;2023-05-19T11:21:51;100724.72;;;16.56;57.41
31681;BME280;18281;51.364;9.566;2023-05-19T11:32:31;100713.88;;;16.59;54.58
31681;BME280;18281;51.364;9.566;2023-05-19T11:35:00;100715.78;;;16.70;55.26
31681;BME280;18281;51.364;9.566;2023-05-19T11:37:26;100708.47;;;16.60;54.51
31681;BME280;18281;51.364;9.566;2023-05-19T11:39:53;100715.91;;;16.68;55.60
31681;BME280;18281;51.364;9.566;2023-05-19T11:42:19;100706.66;;;16.74;54.90
31681;BME280;18281;51.364;9.566;2023-05-19T11:44:45;100710.53;;;16.94;56.69
31681;BME280;18281;51.364;9.566;2023-05-19T11:47:14;100709.47;;;16.97;56.08
31681;BME280;18281;51.364;9.566;2023-05-19T11:49:46;100707.88;;;17.07;56.58
31681;BME280;18281;51.364;9.566;2023-05-19T11:52:12;100703.06;;;16.75;56.64
31681;BME280;18281;51.364;9.566;2023-05-19T11:54:38;100704.75;;;16.89;58.12
31681;BME280;18281;51.364;9.566;2023-05-19T11:57:09;100712.69;;;16.89;57.81
31681;BME280;18281;51.364;9.566;2023-05-19T11:59:36;100698.69;;;16.87;56.63
31681;BME280;18281;51.364;9.566;2023-05-19T12:02:19;100709.28;;;17.00;56.05
31681;BME280;18281;51.364;9.566;2023-05-19T12:04:48;100704.16;;;16.97;56.02
31681;BME280;18281;51.364;9.566;2023-05-19T12:07:28;100701.72;;;17.06;56.66
31681;BME280;18281;51.364;9.566;2023-05-19T12:09:54;100710.53;;;17.07;57.72
31681;BME280;18281;51.364;9.566;2023-05-19T12:15:42;100701.34;;;17.24;57.72
31681;BME280;18281;51.364;9.566;2023-05-19T12:18:07;100699.53;;;17.24;56.33
31681;BME280;18281;51.364;9.566;2023-05-19T12:20:33;100693.28;;;17.25;56.31
31681;BME280;18281;51.364;9.566;2023-05-19T12:23:00;100693.28;;;17.25;55.97
31681;BME280;18281;51.364;9.566;2023-05-19T12:25:27;100697.38;;;17.30;56.45
31681;BME280;18281;51.364;9.566;2023-05-19T12:27:59;100697.09;;;17.21;56.75
31681;BME280;18281;51.364;9.566;2023-05-19T12:30:28;100704.97;;;17.10;56.81
31681;BME280;18281;51.364;9.566;2023-05-19T12:32:57;100705.72;;;17.12;56.49
31681;BME280;18281;51.364;9.566;2023-05-19T12:35:26;100688.72;;;16.90;55.31
31681;BME280;18281;51.364;9.566;2023-05-19T12:37:53;100691.66;;;16.99;56.19
31681;BME280;18281;51.364;9.566;2023-05-19T12:40:19;100698.66;;;17.00;54.74
31681;BME280;18281;51.364;9.566;2023-05-19T12:42:44;100689.19;;;17.08;55.23
31681;BME280;18281;51.364;9.566;2023-05-19T12:45:10;100685.63;;;17.21;55.91
31681;BME280;18281;51.364;9.566;2023-05-19T12:47:35;100693.69;;;17.19;57.25
31681;BME280;18281;51.364;9.566;2023-05-19T12:50:06;100696.06;;;17.11;55.73
31681;BME280;18281;51.364;9.566;2023-05-19T12:52:48;100694.88;;;17.15;55.47
31681;BME280;18281;51.364;9.566;2023-05-19T12:55:15;100691.00;;;17.32;56.48
31681;BME280;18281;51.364;9.566;2023-05-19T12:57:42;100693.66;;;17.45;57.60
31681;BME280;18281;51.364;9.566;2023-05-19T13:00:19;100693.94;;;17.16;56.57
31681;BME280;18281;51.364;9.566;2023-05-19T13:03:02;100698.72;;;17.11;56.69
31681;BME280;18281;51.364;9.566;2023-05-19T13:05:39;100701.16;;;17.14;57.56
31681;BME280;18281;51.364;9.566;2023-05-19T13:08:09;100684.56;;;17.23;57.31
31681;BME280;18281;51.364;9.566;2023-05-19T13:10:39;100682.66;;;17.25;56.45
31681;BME280;18281;51.364;9.566;2023-05-19T13:13:07;100686.03;;;17.27;57.63
31681;BME280;18281;51.364;9.566;2023-05-19T13:15:35;100691.56;;;17.24;58.40
31681;BME280;18281;51.364;9.566;2023-05-19T13:18:03;100685.19;;;17.40;56.84
31681;BME280;18281;51.364;9.566;2023-05-19T13:20:30;100688.78;;;17.02;56.84
31681;BME280;18281;51.364;9.566;2023-05-19T13:22:57;100676.31;;;17.15;57.25
31681;BME280;18281;51.364;9.566;2023-05-19T13:25:23;100678.00;;;17.16;56.61